Time;durP1;ratioP1;P1;durP2;ratioP2;P2;SDS_P1;SDS_P2;PMS_P1;PMS_P2;Temp;Humidity;BMP_temperature;BMP_pressure;BME280_temperature;BME280_humidity;BME280_pressure;Samples;Min_cycle;Max_cycle;Signal;HPM_P1;HPM_P2
2023/04/06 00:01:10;;;;;;;1.80;1.70;;;1.00;97.30;;;;;;4974624;28;20174;-84
2023/04/06 00:03:36;;;;;;;1.87;1.77;;;1.00;97.30;;;;;;4967707;28;20532;-84
2023/04/06 00:06:02;;;;;;;2.70;2.50;;;;;;;;;;4960497;28;20424;-83
2023/04/06 00:08:29;;;;;;;2.73;2.53;;;;;;;;;;4979847;28;20182;-83
2023/04/06 00:10:55;;;;;;;3.00;2.80;;;1.10;97.30;;;;;;4979164;28;21120;-84
2023/04/06 00:13:20;;;;;;;1.70;1.60;;;1.10;97.30;;;;;;4961559;28;20500;-85
2023/04/06 00:15:46;;;;;;;1.87;1.30;;;1.10;97.30;;;;;;4972003;28;20185;-84
2023/04/06 00:18:11;;;;;;;2.70;2.27;;;1.10;97.30;;;;;;4986085;28;20178;-85
2023/04/06 00:20:37;;;;;;;1.27;1.17;;;1.10;97.30;;;;;;4970205;28;20181;-86
2023/04/06 00:23:02;;;;;;;2.57;2.37;;;1.10;97.30;;;;;;4956118;28;20210;-84
2023/04/06 00:25:28;;;;;;;1.97;1.93;;;1.20;97.30;;;;;;4970012;28;20655;-83
2023/04/06 00:27:53;;;;;;;1.97;1.87;;;1.20;97.30;;;;;;4984738;28;20209;-86
2023/04/06 00:30:19;;;;;;;2.27;2.10;;;1.20;97.30;;;;;;4966538;28;20182;-84
2023/04/06 00:32:45;;;;;;;3.23;1.67;;;1.20;97.30;;;;;;4982044;28;20245;-84
2023/04/06 00:35:10;;;;;;;1.53;1.43;;;1.20;97.30;;;;;;4957430;28;20589;-84
2023/04/06 00:37:36;;;;;;;2.70;2.50;;;1.30;97.30;;;;;;4964760;28;20174;-84
2023/04/06 00:40:02;;;;;;;2.17;1.53;;;1.30;97.30;;;;;;4959143;28;20656;-84
2023/04/06 00:42:28;;;;;;;1.60;1.50;;;1.30;97.30;;;;;;4973561;28;20230;-84
2023/04/06 00:44:54;;;;;;;3.57;2.40;;;1.30;97.30;;;;;;4985775;28;20205;-84
2023/04/06 00:47:20;;;;;;;1.90;1.80;;;1.30;97.30;;;;;;4979400;28;20428;-84
2023/04/06 00:49:45;;;;;;;2.33;2.13;;;1.30;97.30;;;;;;4962656;28;20430;-85
2023/04/06 00:52:11;;;;;;;13.93;2.50;;;1.30;97.30;;;;;;4972824;28;20466;-85
2023/04/06 00:54:36;;;;;;;3.10;2.20;;;1.30;97.30;;;;;;4975324;28;20185;-84
2023/04/06 00:57:01;;;;;;;2.93;2.10;;;1.40;97.30;;;;;;4972000;28;20187;-84
2023/04/06 00:59:29;;;;;;;4.63;2.47;;;1.40;97.30;;;;;;4956898;28;20650;-87
2023/04/06 01:01:54;;;;;;;6.43;3.43;;;1.40;97.30;;;;;;4974283;28;20190;-87
2023/04/06 01:04:22;;;;;;;2.73;2.53;;;1.40;97.30;;;;;;4956824;28;20422;-88
2023/04/06 01:06:48;;;;;;;1.40;1.30;;;1.40;97.30;;;;;;4967792;28;20186;-87
2023/04/06 01:09:13;;;;;;;1.30;1.20;;;1.40;97.30;;;;;;4957618;28;20795;-87
2023/04/06 01:11:39;;;;;;;5.70;2.00;;;1.50;97.30;;;;;;4965519;28;20645;-87
2023/04/06 01:14:05;;;;;;;3.43;3.10;;;1.50;97.30;;;;;;4965220;28;20269;-87
2023/04/06 01:16:31;;;;;;;1.73;1.67;;;1.60;97.30;;;;;;4973285;28;20558;-87
2023/04/06 01:18:56;;;;;;;1.53;1.47;;;1.60;97.30;;;;;;4972407;28;20179;-87
2023/04/06 01:21:22;;;;;;;2.17;2.03;;;1.60;97.30;;;;;;4971696;28;20245;-87
2023/04/06 01:23:47;;;;;;;4.20;1.80;;;1.60;97.30;;;;;;4976444;28;20178;-86
2023/04/06 01:26:13;;;;;;;2.43;2.23;;;1.70;97.30;;;;;;4973541;28;20194;-87
2023/04/06 01:28:39;;;;;;;1.50;1.40;;;1.70;97.30;;;;;;4950703;28;20194;-88
2023/04/06 01:31:07;;;;;;;4.50;4.20;;;1.70;97.30;;;;;;4971274;28;20455;-88
2023/04/06 01:33:33;;;;;;;3.50;2.67;;;1.70;97.30;;;;;;4972813;28;20556;-87
2023/04/06 01:35:58;;;;;;;1.50;1.40;;;1.70;97.30;;;;;;4969811;28;21006;-84
2023/04/06 01:38:24;;;;;;;2.73;2.53;;;1.70;97.30;;;;;;4954684;28;20182;-85
2023/04/06 01:40:50;;;;;;;2.13;1.47;;;1.80;97.30;;;;;;4959584;28;20445;-84
2023/04/06 01:43:15;;;;;;;2.47;2.20;;;1.80;97.30;;;;;;4976493;28;20210;-85
2023/04/06 01:45:41;;;;;;;3.00;2.80;;;1.80;97.30;;;;;;4980748;28;20175;-83
2023/04/06 01:48:07;;;;;;;1.97;1.80;;;1.80;97.30;;;;;;4964565;28;20182;-86
2023/04/06 01:50:32;;;;;;;2.97;2.33;;;1.80;97.30;;;;;;4959973;28;20187;-83
2023/04/06 01:52:58;;;;;;;2.77;2.57;;;1.80;97.30;;;;;;4966168;28;20480;-84
2023/04/06 01:55:24;;;;;;;3.40;3.20;;;1.90;97.30;;;;;;4964953;28;20225;-85
2023/04/06 01:57:49;;;;;;;1.97;1.87;;;1.90;97.30;;;;;;4958263;28;20174;-83
2023/04/06 02:00:15;;;;;;;2.07;1.83;;;1.90;97.30;;;;;;4962376;28;20432;-83
2023/04/06 02:02:41;;;;;;;4.10;3.87;;;2.00;97.30;;;;;;4966252;28;20206;-83
2023/04/06 02:05:07;;;;;;;1.93;1.83;;;2.00;97.30;;;;;;4970962;28;20425;-83
2023/04/06 02:07:33;;;;;;;2.10;2.00;;;2.00;97.30;;;;;;4982649;28;20262;-83
2023/04/06 02:09:58;;;;;;;1.53;1.43;;;2.00;97.30;;;;;;4971891;28;20434;-85
2023/04/06 02:12:24;;;;;;;1.63;1.53;;;2.00;97.30;;;;;;4965543;28;20206;-83
2023/04/06 02:14:49;;;;;;;1.33;1.23;;;2.00;97.30;;;;;;4962914;28;20671;-84
2023/04/06 02:17:15;;;;;;;2.20;1.97;;;1.90;97.30;;;;;;4966929;28;20272;-83
2023/04/06 02:19:40;;;;;;;3.53;2.23;;;2.00;97.30;;;;;;4968284;28;20220;-83
2023/04/06 02:22:06;;;;;;;2.70;1.73;;;2.00;97.30;;;;;;4971380;28;20210;-84
2023/04/06 02:24:32;;;;;;;2.00;1.90;;;2.00;97.30;;;;;;4980367;28;20213;-83
2023/04/06 02:26:57;;;;;;;1.30;1.20;;;2.00;97.30;;;;;;4975032;28;20564;-84
2023/04/06 02:29:23;;;;;;;4.40;2.50;;;2.00;97.30;;;;;;4967211;28;20209;-84
2023/04/06 02:31:48;;;;;;;2.43;1.57;;;2.00;97.30;;;;;;4962789;28;20203;-82
2023/04/06 02:34:17;;;;;;;3.13;2.93;;;2.00;97.30;;;;;;4968304;28;20357;-83
2023/04/06 02:36:44;;;;;;;1.77;1.67;;;2.00;97.30;;;;;;4963797;28;20706;-83
2023/04/06 02:39:10;;;;;;;2.13;2.03;;;2.00;97.30;;;;;;4968789;28;20425;-84
2023/04/06 02:41:35;;;;;;;2.10;1.83;;;2.10;97.30;;;;;;4962479;28;20422;-83
2023/04/06 02:44:01;;;;;;;3.03;1.93;;;2.10;97.30;;;;;;4968107;28;20413;-83
2023/04/06 02:46:26;;;;;;;2.73;2.53;;;2.20;97.30;;;;;;4971880;28;20671;-83
2023/04/06 02:51:20;;;;;;;5.50;3.73;;;2.20;97.30;;;;;;4956445;28;20679;-83
2023/04/06 02:53:45;;;;;;;1.90;1.80;;;2.20;97.30;;;;;;4941528;29;20473;-80
2023/04/06 02:56:11;;;;;;;1.63;1.53;;;2.20;97.30;;;;;;4961998;28;20648;-79
2023/04/06 02:58:36;;;;;;;5.43;1.67;;;2.20;97.30;;;;;;4969872;28;20183;-82
2023/04/06 03:01:03;;;;;;;3.83;3.10;;;2.30;97.30;;;;;;4957319;28;20203;-77
2023/04/06 03:03:28;;;;;;;2.53;1.80;;;2.30;97.30;;;;;;4950392;29;20195;-77
2023/04/06 03:05:54;;;;;;;1.83;1.73;;;2.30;97.30;;;;;;4944279;28;20597;-82
2023/04/06 03:08:20;;;;;;;1.93;1.30;;;2.30;97.30;;;;;;4969694;28;20270;-81
2023/04/06 03:10:45;;;;;;;1.80;1.70;;;2.30;97.30;;;;;;4942601;29;20754;-78
2023/04/06 03:13:11;;;;;;;2.20;2.00;;;2.30;97.30;;;;;;4961781;28;20622;-81
2023/04/06 03:15:36;;;;;;;3.40;2.40;;;2.20;97.30;;;;;;4945828;29;20274;-82
2023/04/06 03:18:02;;;;;;;2.27;2.07;;;2.20;97.30;;;;;;4943823;28;20404;-78
2023/04/06 03:20:27;;;;;;;3.60;2.43;;;2.20;97.30;;;;;;4945330;28;20557;-78
2023/04/06 03:22:53;;;;;;;1.73;1.67;;;2.20;97.30;;;;;;4957128;28;20187;-83
2023/04/06 03:25:18;;;;;;;1.30;1.20;;;2.20;97.30;;;;;;4941764;29;20211;-82
2023/04/06 03:27:44;;;;;;;3.30;3.10;;;2.20;97.30;;;;;;4957516;28;20207;-78
2023/04/06 03:30:10;;;;;;;15.83;3.80;;;2.20;97.30;;;;;;4952269;28;20195;-77
2023/04/06 03:32:35;;;;;;;3.27;2.80;;;2.20;97.30;;;;;;4942683;29;20230;-82
2023/04/06 03:35:01;;;;;;;2.07;1.70;;;2.20;97.30;;;;;;4941620;28;20415;-77
2023/04/06 03:37:26;;;;;;;1.40;1.30;;;2.10;97.30;;;;;;4967304;28;20766;-78
2023/04/06 03:39:52;;;;;;;2.77;2.57;;;2.10;97.30;;;;;;4970517;28;20195;-78
2023/04/06 03:42:17;;;;;;;1.73;1.63;;;2.00;97.30;;;;;;4941683;28;20648;-82
2023/04/06 03:44:43;;;;;;;2.27;2.07;;;2.00;97.30;;;;;;4962196;28;20182;-78
2023/04/06 03:47:08;;;;;;;1.33;1.23;;;2.00;97.30;;;;;;4967422;28;20182;-81
2023/04/06 03:49:34;;;;;;;4.87;2.80;;;2.00;97.30;;;;;;4966910;28;20230;-79
2023/04/06 03:52:01;;;;;;;2.47;2.30;;;1.90;97.30;;;;;;4968496;28;20403;-81
2023/04/06 03:54:26;;;;;;;2.80;2.30;;;1.90;97.30;;;;;;4962806;28;20175;-78
2023/04/06 03:56:52;;;;;;;2.27;2.13;;;1.90;97.30;;;;;;4947303;28;20806;-79
2023/04/06 03:59:17;;;;;;;3.60;3.40;;;1.80;97.30;;;;;;4964224;28;20203;-80
2023/04/06 04:01:43;;;;;;;10.67;2.70;;;1.80;97.30;;;;;;4953106;28;20207;-83
2023/04/06 04:04:08;;;;;;;1.73;1.63;;;1.80;97.30;;;;;;4963207;28;20167;-78
2023/04/06 04:06:36;;;;;;;3.40;3.20;;;1.80;97.30;;;;;;4974696;28;20186;-78
2023/04/06 04:09:01;;;;;;;1.77;1.67;;;1.70;97.30;;;;;;4935404;28;20178;-79
2023/04/06 04:11:27;;;;;;;6.20;3.60;;;1.70;97.30;;;;;;4942874;29;20423;-80
2023/04/06 04:13:53;;;;;;;2.20;1.83;;;1.70;97.30;;;;;;4955506;28;20206;-78
2023/04/06 04:16:18;;;;;;;1.77;1.67;;;1.70;97.30;;;;;;4945629;29;20644;-82
2023/04/06 04:18:45;;;;;;;2.23;2.10;;;1.60;97.30;;;;;;4944803;28;20551;-78
2023/04/06 04:21:10;;;;;;;1.80;1.70;;;1.60;97.30;;;;;;4961693;28;20188;-84
2023/04/06 04:23:36;;;;;;;4.00;2.33;;;1.60;97.30;;;;;;4960915;28;20427;-78
2023/04/06 04:26:02;;;;;;;1.70;1.67;;;1.50;97.30;;;;;;4950709;28;20244;-78
2023/04/06 04:28:27;;;;;;;1.77;1.67;;;1.50;97.30;;;;;;4969703;28;20309;-78
2023/04/06 04:30:53;;;;;;;6.63;2.03;;;1.50;97.30;;;;;;4957534;28;20545;-81
2023/04/06 04:33:21;;;;;;;1.80;1.70;;;1.50;97.30;;;;;;4960069;28;20213;-84
2023/04/06 04:35:50;;;;;;;2.43;2.27;;;1.50;97.30;;;;;;4957258;28;20543;-80
2023/04/06 04:41:22;;;;;;;1.83;1.73;;;1.50;97.30;;;;;;4946649;28;20446;-82
2023/04/06 04:43:50;;;;;;;5.20;2.33;;;1.50;97.30;;;;;;4942316;28;20422;-78
2023/04/06 04:46:29;;;;;;;2.03;1.77;;;1.40;97.30;;;;;;4949883;28;20614;-83
2023/04/06 04:49:02;;;;;;;2.67;2.47;;;1.40;97.30;;;;;;4941510;28;20422;-79
2023/04/06 04:52:06;;;;;;;;;;;;;;;;;;;;;
2023/04/06 04:54:32;;;;;;;3.13;2.60;;;1.40;97.30;;;;;;4954088;28;20517;-83
2023/04/06 04:57:00;;;;;;;1.93;1.80;;;1.40;97.30;;;;;;4946549;28;20454;-84
2023/04/06 04:59:26;;;;;;;3.30;2.23;;;1.40;97.30;;;;;;4938258;29;20230;-84
2023/04/06 05:01:51;;;;;;;2.80;2.60;;;1.50;97.30;;;;;;4954908;29;20418;-85
2023/04/06 05:04:23;;;;;;;2.97;2.80;;;1.50;97.30;;;;;;4942980;28;20514;-84
2023/04/06 05:07:11;;;;;;;1.20;1.10;;;1.50;97.30;;;;;;4950215;29;20175;-85
2023/04/06 05:10:00;;;;;;;1.57;1.50;;;1.50;97.30;;;;;;4986568;23;20501;-82
2023/04/06 05:13:12;;;;;;;3.30;3.00;;;1.50;97.30;;;;;;4979031;28;20458;-84
2023/04/06 05:15:40;;;;;;;3.63;3.43;;;1.50;97.30;;;;;;4968936;28;20414;-84
2023/04/06 05:18:12;;;;;;;12.47;2.03;;;1.60;97.30;;;;;;4977420;28;20410;-84
2023/04/06 05:20:42;;;;;;;4.83;3.47;;;1.60;97.30;;;;;;4975695;28;20440;-85
2023/04/06 05:23:11;;;;;;;1.60;1.50;;;1.60;97.30;;;;;;4987548;28;20466;-82
2023/04/06 05:25:42;;;;;;;2.10;2.00;;;1.60;97.30;;;;;;4983660;28;20416;-82
2023/04/06 05:28:10;;;;;;;2.33;2.03;;;1.70;97.30;;;;;;4978186;28;20417;-85
2023/04/06 05:30:52;;;;;;;1.67;1.57;;;1.70;97.30;;;;;;5001062;28;20439;-84
2023/04/06 05:33:21;;;;;;;1.80;1.57;;;1.80;97.30;;;;;;4981718;28;21078;-78
2023/04/06 05:36:10;;;;;;;4.03;3.83;;;1.80;97.30;;;;;;5000588;28;20950;-79
2023/04/06 05:38:42;;;;;;;4.47;3.20;;;1.80;97.30;;;;;;4973785;28;20428;-83
2023/04/06 05:41:10;;;;;;;1.60;1.50;;;1.90;97.30;;;;;;4979076;28;20452;-83
2023/04/06 05:43:38;;;;;;;1.67;1.57;;;2.00;97.30;;;;;;4993933;28;20424;-82
2023/04/06 05:46:10;;;;;;;3.63;2.03;;;2.00;97.30;;;;;;4989976;28;20491;-83
2023/04/06 05:48:41;;;;;;;1.90;1.80;;;2.10;97.30;;;;;;4975710;28;20429;-84
2023/04/06 05:52:12;;;;;;;2.50;2.30;;;2.10;97.30;;;;;;4978420;28;20444;-83
2023/04/06 05:54:32;;;;;;;2.30;2.10;;;2.20;97.30;;;;;;4990138;28;20455;-84
2023/04/06 05:57:02;;;;;;;3.43;2.40;;;2.20;97.30;;;;;;4977812;28;20433;-83
2023/04/06 05:59:31;;;;;;;1.70;1.60;;;2.30;97.30;;;;;;4968799;28;20464;-84
2023/04/06 06:02:01;;;;;;;3.03;2.00;;;2.30;97.30;;;;;;4988989;28;20467;-81
2023/04/06 06:04:28;;;;;;;2.20;2.00;;;2.40;97.30;;;;;;4971697;28;20413;-84
2023/04/06 06:06:54;;;;;;;4.10;3.53;;;2.50;97.30;;;;;;4972494;28;20792;-86
2023/04/06 06:09:20;;;;;;;3.13;2.20;;;2.50;97.30;;;;;;4975172;28;20457;-84
2023/04/06 06:11:46;;;;;;;2.43;2.23;;;2.60;97.30;;;;;;4973198;28;20659;-85
2023/04/06 06:14:12;;;;;;;4.23;3.97;;;2.70;97.30;;;;;;4973642;28;20383;-85
2023/04/06 06:16:37;;;;;;;2.73;2.40;;;2.70;97.30;;;;;;4973836;28;20167;-86
2023/04/06 06:19:03;;;;;;;1.50;1.40;;;2.80;97.30;;;;;;4969485;28;20190;-85
2023/04/06 06:21:28;;;;;;;2.93;1.77;;;2.80;97.30;;;;;;4975132;28;20190;-85
2023/04/06 06:23:54;;;;;;;5.47;4.00;;;3.00;97.30;;;;;;4985125;28;20183;-85
2023/04/06 06:26:20;;;;;;;1.80;1.70;;;3.10;97.30;;;;;;4991964;28;20456;-87
2023/04/06 06:28:45;;;;;;;2.80;2.60;;;3.20;97.30;;;;;;4996933;28;20185;-85
2023/04/06 06:31:11;;;;;;;1.37;1.27;;;3.40;97.30;;;;;;4979590;28;20269;-84
2023/04/06 06:33:36;;;;;;;3.53;3.33;;;3.50;97.30;;;;;;4979285;28;20256;-86
2023/04/06 06:36:02;;;;;;;4.77;1.63;;;3.60;97.30;;;;;;4983358;28;20186;-85
2023/04/06 06:38:27;;;;;;;2.60;2.40;;;3.80;97.30;;;;;;4975365;28;20585;-85
2023/04/06 06:40:53;;;;;;;6.43;4.70;;;3.90;97.30;;;;;;4991899;28;20609;-84
2023/04/06 06:43:18;;;;;;;2.37;2.17;;;4.00;97.30;;;;;;4979204;28;20606;-86
2023/04/06 06:45:44;;;;;;;2.33;2.13;;;4.10;97.30;;;;;;4993616;28;20186;-85
2023/04/06 06:48:10;;;;;;;7.10;3.40;;;4.10;97.30;;;;;;4974717;28;20675;-86
2023/04/06 06:50:36;;;;;;;5.03;3.00;;;4.20;97.30;;;;;;4980586;28;20221;-86
2023/04/06 06:53:01;;;;;;;3.43;2.53;;;4.40;95.80;;;;;;4979580;28;20495;-84
2023/04/06 06:55:33;;;;;;;2.37;2.17;;;4.50;94.60;;;;;;4987926;28;20256;-85
2023/04/06 06:58:34;;;;;;;;;;;;;;;;;;;;;
2023/04/06 07:04:33;;;;;;;1.37;1.20;;;4.80;92.70;;;;;;4970979;28;20457;-86
2023/04/06 07:07:01;;;;;;;4.00;2.63;;;4.90;93.50;;;;;;4974023;28;20457;-85
2023/04/06 07:10:11;;;;;;;1.50;1.40;;;5.00;93.10;;;;;;4976951;28;20252;-83
2023/04/06 07:13:06;;;;;;;2.40;2.00;;;5.10;93.00;;;;;;4992921;28;20929;-85
2023/04/06 07:15:37;;;;;;;1.70;1.60;;;5.30;92.60;;;;;;4986934;28;20425;-84
2023/04/06 07:18:03;;;;;;;3.30;3.07;;;5.40;92.60;;;;;;4998690;28;20847;-84
2023/04/06 07:20:28;;;;;;;1.70;1.60;;;5.50;92.60;;;;;;4981689;28;20437;-85
2023/04/06 07:22:54;;;;;;;3.50;3.30;;;5.60;92.70;;;;;;4999081;28;20214;-84
2023/04/06 07:25:20;;;;;;;1.90;1.80;;;5.80;94.10;;;;;;5003273;28;20170;-85
2023/04/06 07:27:45;;;;;;;1.83;1.50;;;5.90;93.20;;;;;;4980775;28;20424;-82
2023/04/06 07:30:11;;;;;;;4.13;2.50;;;6.00;91.50;;;;;;4995519;28;20197;-84
2023/04/06 07:32:37;;;;;;;3.07;2.70;;;6.20;90.20;;;;;;5006375;28;20196;-84
2023/04/06 07:35:03;;;;;;;6.60;3.33;;;6.30;89.20;;;;;;4998430;28;20170;-84
2023/04/06 07:37:28;;;;;;;2.63;2.40;;;6.50;87.50;;;;;;4988809;28;20698;-86
2023/04/06 07:39:54;;;;;;;2.07;1.93;;;6.70;85.90;;;;;;4981165;28;20472;-85
2023/04/06 07:42:19;;;;;;;3.00;2.43;;;6.80;84.50;;;;;;4991972;28;20276;-85
2023/04/06 07:44:45;;;;;;;4.40;2.60;;;6.90;84.20;;;;;;4981233;28;20189;-85
2023/04/06 07:47:10;;;;;;;4.83;2.50;;;7.00;84.30;;;;;;4998346;28;20193;-85
2023/04/06 07:49:36;;;;;;;2.30;2.10;;;7.20;84.30;;;;;;4982008;28;20301;-87
2023/04/06 07:52:02;;;;;;;5.03;2.97;;;7.30;84.20;;;;;;4998495;28;20272;-84
2023/04/06 07:54:28;;;;;;;1.67;1.57;;;7.50;84.10;;;;;;4982356;28;20390;-84
2023/04/06 07:56:53;;;;;;;3.13;2.40;;;7.60;83.00;;;;;;5007759;28;20633;-90
2023/04/06 07:59:19;;;;;;;1.83;1.73;;;7.70;81.50;;;;;;5016181;28;20224;-91
2023/04/06 08:01:44;;;;;;;2.90;2.70;;;7.80;82.20;;;;;;5017560;28;20200;-88
2023/04/06 08:04:10;;;;;;;2.20;1.37;;;7.90;82.70;;;;;;4993273;28;20209;-84
2023/04/06 08:06:36;;;;;;;2.07;1.93;;;8.10;82.90;;;;;;5003539;28;20194;-87
2023/04/06 08:09:02;;;;;;;2.70;2.50;;;8.20;82.80;;;;;;4990012;28;20184;-84
2023/04/06 08:11:28;;;;;;;1.90;1.90;;;8.30;81.10;;;;;;4995005;28;20416;-86
2023/04/06 08:13:55;;;;;;;2.33;2.13;;;8.30;79.80;;;;;;4980640;28;20472;-85
2023/04/06 08:16:21;;;;;;;1.93;1.83;;;8.30;79.40;;;;;;4996896;28;20249;-84
2023/04/06 08:18:46;;;;;;;3.33;2.53;;;8.30;79.60;;;;;;4981566;28;20457;-86
2023/04/06 08:21:11;;;;;;;1.90;1.80;;;8.40;80.40;;;;;;4996710;28;20196;-85
2023/04/06 08:23:37;;;;;;;3.20;2.03;;;8.50;79.90;;;;;;4996603;28;20193;-85
2023/04/06 08:26:02;;;;;;;3.83;1.93;;;8.60;79.00;;;;;;4976338;28;20205;-85
2023/04/06 08:28:28;;;;;;;2.90;2.53;;;8.50;77.80;;;;;;4979603;28;20201;-86
2023/04/06 08:30:53;;;;;;;2.53;2.33;;;8.60;79.80;;;;;;4998360;28;20301;-86
2023/04/06 08:33:19;;;;;;;1.73;1.63;;;8.80;79.00;;;;;;4992698;28;20252;-85
2023/04/06 08:35:44;;;;;;;3.00;2.33;;;8.90;79.00;;;;;;4979312;28;20801;-86
2023/04/06 08:38:10;;;;;;;2.53;2.33;;;9.10;79.80;;;;;;5001454;28;20181;-87
2023/04/06 08:40:37;;;;;;;2.13;2.00;;;9.30;79.10;;;;;;4989490;28;20203;-85
2023/04/06 08:43:08;;;;;;;2.00;1.87;;;9.40;77.50;;;;;;4977101;28;20650;-85
2023/04/06 08:45:34;;;;;;;1.83;1.33;;;9.50;78.60;;;;;;4976138;28;20858;-87
2023/04/06 08:48:01;;;;;;;2.40;2.10;;;9.50;77.00;;;;;;4974116;28;20439;-85
2023/04/06 08:50:29;;;;;;;18.13;4.10;;;9.50;77.60;;;;;;5004994;23;20737;-87
2023/04/06 08:52:55;;;;;;;8.73;3.10;;;9.60;77.30;;;;;;4955325;28;20547;-87
2023/04/06 08:55:22;;;;;;;3.50;3.13;;;9.70;77.80;;;;;;4968878;28;20513;-87
2023/04/06 08:57:48;;;;;;;2.23;2.07;;;9.70;76.10;;;;;;4957562;28;21480;-87
2023/04/06 09:00:15;;;;;;;2.43;2.23;;;9.80;76.80;;;;;;4974976;28;20449;-87
2023/04/06 09:02:43;;;;;;;1.87;1.83;;;9.80;77.10;;;;;;4954843;28;20545;-88
2023/04/06 09:05:12;;;;;;;2.43;2.30;;;9.90;76.90;;;;;;4969571;28;20448;-87
2023/04/06 09:07:38;;;;;;;4.40;3.37;;;10.10;76.80;;;;;;4984818;28;20426;-88
2023/04/06 09:10:05;;;;;;;1.93;1.80;;;10.20;76.80;;;;;;4960256;28;20438;-88
2023/04/06 09:12:31;;;;;;;2.63;1.93;;;10.30;74.50;;;;;;4967682;28;20466;-89
2023/04/06 09:14:58;;;;;;;4.23;2.60;;;10.30;75.20;;;;;;4963922;28;20434;-88
2023/04/06 09:17:27;;;;;;;2.30;2.10;;;10.40;76.10;;;;;;4967976;28;20492;-87
2023/04/06 09:19:52;;;;;;;2.70;1.80;;;10.50;74.50;;;;;;4959830;28;20448;-88
2023/04/06 09:22:18;;;;;;;4.50;3.15;;;10.60;73.90;;;;;;4956270;28;20421;-87
2023/04/06 09:24:52;;;;;;;6.70;1.70;;;10.60;74.40;;;;;;4959840;28;20217;-88
2023/04/06 09:27:39;;;;;;;4.00;2.80;;;10.70;72.80;;;;;;4952598;28;20223;-88
2023/04/06 09:30:15;;;;;;;1.80;1.70;;;10.70;74.50;;;;;;4960647;28;20456;-87
2023/04/06 09:32:59;;;;;;;5.60;3.23;;;10.80;74.30;;;;;;4953742;28;20547;-88
2023/04/06 09:35:26;;;;;;;2.23;2.07;;;11.00;74.60;;;;;;4959077;28;20476;-88
2023/04/06 09:37:53;;;;;;;2.27;2.07;;;11.10;73.30;;;;;;4952907;28;20852;-88
2023/04/06 09:40:19;;;;;;;1.80;1.70;;;11.20;72.10;;;;;;4976697;28;21045;-88
2023/04/06 09:42:47;;;;;;;2.37;1.60;;;11.30;72.50;;;;;;4962168;28;20425;-88
2023/04/06 09:45:13;;;;;;;2.50;1.90;;;11.30;73.10;;;;;;4968460;28;20422;-90
2023/04/06 09:47:41;;;;;;;2.03;1.90;;;11.30;71.40;;;;;;4960790;28;20426;-88
2023/04/06 09:50:08;;;;;;;2.23;2.03;;;11.40;71.40;;;;;;4965866;28;21010;-87
2023/04/06 09:52:42;;;;;;;1.60;1.50;;;11.50;71.40;;;;;;4953807;28;20250;-87
2023/04/06 09:55:08;;;;;;;7.47;3.73;;;11.50;70.60;;;;;;4967952;28;20452;-88
2023/04/06 09:57:56;;;;;;;4.13;3.00;;;11.60;70.90;;;;;;4967903;28;20418;-88
2023/04/06 10:00:23;;;;;;;2.50;2.00;;;11.70;70.30;;;;;;4963902;28;20434;-88
2023/04/06 10:02:54;;;;;;;1.63;1.60;;;11.90;69.40;;;;;;4979548;28;20946;-88
2023/04/06 10:05:28;;;;;;;6.30;4.30;;;12.00;69.30;;;;;;4973317;28;20414;-88
2023/04/06 10:07:59;;;;;;;4.53;2.40;;;12.10;69.90;;;;;;4963566;28;20852;-88
2023/04/06 10:10:25;;;;;;;1.80;1.70;;;12.20;68.80;;;;;;4972785;28;20454;-87
2023/04/06 10:12:50;;;;;;;3.60;1.60;;;12.40;70.40;;;;;;4971105;28;20471;-88
2023/04/06 10:15:17;;;;;;;3.60;2.10;;;12.50;68.30;;;;;;4971270;28;20194;-90
2023/04/06 10:17:43;;;;;;;8.70;2.17;;;12.40;68.90;;;;;;4972256;28;20197;-88
2023/04/06 10:20:14;;;;;;;2.90;2.30;;;12.30;68.30;;;;;;4964598;28;20469;-88
2023/04/06 10:22:56;;;;;;;2.60;2.03;;;12.00;69.10;;;;;;4960318;28;20498;-88
2023/04/06 10:25:32;;;;;;;3.60;2.00;;;11.90;69.30;;;;;;4956770;28;20944;-88
2023/04/06 10:28:05;;;;;;;1.60;1.50;;;11.90;68.30;;;;;;4972480;28;20425;-88
2023/04/06 10:30:32;;;;;;;1.80;1.60;;;11.80;69.80;;;;;;4979388;28;20445;-84
2023/04/06 10:32:57;;;;;;;1.87;1.40;;;11.90;69.10;;;;;;4966170;28;20453;-88
2023/04/06 10:35:24;;;;;;;2.10;1.90;;;11.80;67.90;;;;;;4975306;28;20540;-87
2023/04/06 10:38:00;;;;;;;2.80;1.80;;;11.70;68.00;;;;;;4987507;28;20715;-87
2023/04/06 10:40:27;;;;;;;3.73;1.50;;;11.60;68.90;;;;;;4976783;28;20457;-88
2023/04/06 10:42:55;;;;;;;2.50;1.70;;;11.80;69.50;;;;;;4960084;28;20496;-87
2023/04/06 10:45:25;;;;;;;3.13;1.97;;;12.10;68.70;;;;;;4962391;28;20437;-87
2023/04/06 10:47:55;;;;;;;2.40;2.07;;;12.30;69.20;;;;;;4968114;28;20430;-87
2023/04/06 10:50:22;;;;;;;2.27;2.07;;;12.40;67.30;;;;;;4960796;28;20484;-87
2023/04/06 10:52:59;;;;;;;3.17;2.90;;;12.60;68.10;;;;;;4959428;28;20837;-86
2023/04/06 10:55:26;;;;;;;2.63;2.10;;;12.70;66.50;;;;;;4975432;28;20952;-86
2023/04/06 10:57:52;;;;;;;2.20;1.73;;;12.90;66.80;;;;;;4972214;28;20429;-90
2023/04/06 11:00:19;;;;;;;7.70;2.57;;;13.00;67.70;;;;;;4969392;28;20445;-89
2023/04/06 11:02:44;;;;;;;5.80;3.20;;;13.00;67.10;;;;;;4973024;28;20197;-88
2023/04/06 11:05:11;;;;;;;3.83;1.73;;;13.00;66.90;;;;;;4955097;28;20431;-87
2023/04/06 11:07:37;;;;;;;2.17;1.87;;;13.10;68.80;;;;;;4971982;28;20182;-89
2023/04/06 11:10:03;;;;;;;1.90;1.77;;;13.30;67.40;;;;;;4962043;28;20455;-90
2023/04/06 11:12:30;;;;;;;2.40;2.20;;;13.40;67.50;;;;;;4955241;28;20213;-88
2023/04/06 11:15:05;;;;;;;2.47;1.77;;;13.50;65.50;;;;;;4957202;28;20278;-89
2023/04/06 11:17:36;;;;;;;5.40;3.70;;;13.50;64.70;;;;;;4988957;28;20435;-88
2023/04/06 11:20:03;;;;;;;3.67;2.47;;;13.60;66.30;;;;;;4974146;28;20529;-88
2023/04/06 11:22:30;;;;;;;2.47;2.00;;;13.60;66.40;;;;;;4972296;28;20923;-87
2023/04/06 11:25:08;;;;;;;4.10;2.60;;;13.60;67.30;;;;;;4960303;28;20429;-87
2023/04/06 11:27:34;;;;;;;2.00;1.77;;;13.60;67.10;;;;;;4959490;28;20552;-88
2023/04/06 11:30:01;;;;;;;2.70;2.37;;;13.60;65.60;;;;;;4989904;28;20788;-87
2023/04/06 11:32:26;;;;;;;3.90;2.60;;;13.50;65.00;;;;;;4973579;28;20504;-88
2023/04/06 11:34:52;;;;;;;2.13;1.97;;;13.60;64.60;;;;;;4956139;28;20462;-88
2023/04/06 11:37:18;;;;;;;2.30;2.10;;;13.80;66.60;;;;;;4958292;28;20179;-88
2023/04/06 11:39:51;;;;;;;1.50;1.40;;;13.90;66.50;;;;;;4959767;28;20186;-88
2023/04/06 11:42:25;;;;;;;3.77;2.50;;;14.00;64.50;;;;;;4957025;28;20671;-87
2023/04/06 11:45:00;;;;;;;1.70;1.60;;;13.90;64.50;;;;;;4965969;28;20425;-88
2023/04/06 11:47:37;;;;;;;3.03;2.70;;;13.90;64.80;;;;;;4974967;28;20483;-90
2023/04/06 11:50:11;;;;;;;1.50;1.40;;;13.90;64.50;;;;;;4983588;28;20491;-86
2023/04/06 11:52:37;;;;;;;2.27;2.07;;;14.00;65.80;;;;;;4966450;28;20481;-87
2023/04/06 11:55:15;;;;;;;2.80;2.17;;;14.10;64.70;;;;;;4969730;28;20440;-88
2023/04/06 11:57:41;;;;;;;2.23;2.00;;;14.30;66.10;;;;;;4972300;28;20426;-88
2023/04/06 12:00:11;;;;;;;3.80;3.60;;;14.30;64.90;;;;;;4960982;28;20438;-87
2023/04/06 12:02:37;;;;;;;3.00;2.63;;;14.30;63.80;;;;;;4967946;28;20481;-87
2023/04/06 12:05:04;;;;;;;4.67;2.10;;;14.50;65.80;;;;;;4958221;28;20954;-88
2023/04/06 12:07:30;;;;;;;17.73;2.50;;;14.60;64.60;;;;;;4969337;28;20517;-89
2023/04/06 12:09:55;;;;;;;1.90;1.80;;;14.60;62.80;;;;;;4987444;28;20458;-87
2023/04/06 12:12:21;;;;;;;4.40;2.57;;;14.60;63.00;;;;;;4980957;28;20190;-87
2023/04/06 12:14:46;;;;;;;4.00;3.63;;;14.80;64.80;;;;;;4973366;28;20502;-87
2023/04/06 12:17:12;;;;;;;2.70;1.90;;;14.90;63.70;;;;;;4963721;28;20199;-88
2023/04/06 12:19:37;;;;;;;1.43;1.40;;;15.00;65.80;;;;;;4962429;28;20174;-87
2023/04/06 12:22:03;;;;;;;2.70;1.90;;;15.30;64.80;;;;;;4958380;28;20190;-87
2023/04/06 12:24:29;;;;;;;3.40;2.53;;;15.10;64.80;;;;;;4979255;28;20191;-88
2023/04/06 12:26:54;;;;;;;2.97;2.80;;;15.30;64.90;;;;;;4958446;28;20474;-88
2023/04/06 12:29:20;;;;;;;2.80;2.60;;;15.30;64.90;;;;;;4966616;28;21093;-87
2023/04/06 12:31:46;;;;;;;6.23;2.53;;;15.40;63.50;;;;;;4982648;28;20202;-87
2023/04/06 12:34:11;;;;;;;4.00;2.53;;;15.60;64.90;;;;;;4974059;28;20198;-87
2023/04/06 12:36:38;;;;;;;2.30;2.10;;;15.70;65.00;;;;;;4973342;28;20656;-88
2023/04/06 12:39:05;;;;;;;8.40;2.00;;;;;;;;;;4971092;28;20175;-87
2023/04/06 12:41:30;;;;;;;3.03;2.63;;;15.70;61.10;;;;;;4973176;28;20863;-87
2023/04/06 12:43:56;;;;;;;2.87;2.67;;;15.40;60.20;;;;;;4972682;28;20434;-87
2023/04/06 12:46:22;;;;;;;4.00;2.23;;;15.40;61.60;;;;;;4982468;28;20182;-87
2023/04/06 12:48:48;;;;;;;5.47;3.13;;;15.30;60.40;;;;;;4984197;28;20236;-87
2023/04/06 12:51:14;;;;;;;2.73;2.53;;;15.50;61.70;;;;;;4976808;28;20461;-87
2023/04/06 12:53:40;;;;;;;3.23;2.00;;;15.70;60.00;;;;;;4968807;28;20261;-88
2023/04/06 12:56:13;;;;;;;3.40;2.60;;;15.80;63.00;;;;;;4952863;28;20525;-87
2023/04/06 12:58:41;;;;;;;2.13;1.90;;;16.00;61.50;;;;;;4975779;28;20608;-89
2023/04/06 13:01:07;;;;;;;2.43;2.23;;;16.20;59.60;;;;;;4985803;28;20859;-88
2023/04/06 13:03:33;;;;;;;4.73;2.47;;;16.20;60.50;;;;;;4980177;28;20433;-86
2023/04/06 13:06:00;;;;;;;5.43;1.70;;;16.10;59.30;;;;;;4956601;28;20564;-88
2023/04/06 13:08:25;;;;;;;3.17;2.37;;;16.30;60.70;;;;;;4955060;28;20189;-88
2023/04/06 13:10:52;;;;;;;6.03;2.70;;;16.40;59.90;;;;;;4960361;28;20544;-87